KAVL/AVL METAR and TAF weather

Enter ICAO airport designator
Station Type Date Time Source
KAVL METAR 2019/02/23 16:54 UTC NOAA

KAVL 231654Z 18008KT 10SM OVC016 06/05 A3023 RMK AO2 RAE49 SLP235 P0002 T00610050


Station Type Date Time Source
KAVL Decoded METAR 2019/02/23 16:54 UTC NOAA

ASHEVILLE REGIONAL AIRPORT, NC, United States (KAVL) 35-26N 82-32W 670M
Feb 23, 2019 - 11:54 AM EST / 2019.02.23 1654 UTC
Wind: from the S (180 degrees) at 9 MPH (8 KT):0
Visibility: 10 mile(s):0
Sky conditions: overcast
Precipitation last hour: 0.02 inches
Temperature: 43.0 F (6.1 C)
Dew Point: 41.0 F (5.0 C)
Relative Humidity: 92%
Pressure (altimeter): 30.23 in. Hg (1023 hPa)
ob: KAVL 231654Z 18008KT 10SM OVC016 06/05 A3023 RMK AO2 RAE49 SLP235 P0002 T00610050
cycle: 17

Station Type Date Time Source
KAVL TAF 2019/02/23 12:40 UTC NOAA

TAF KAVL 231138Z 2312/2412 15006KT 3SM -SHRADZ BR OVC006
FM232000 16006KT 3SM BR VCSH OVC012
FM240300 16006KT 1 1/2SM -SHRA BR OVC005
FM240600 16005KT 2SM RA BR BKN005 OVC011 WS020/20035KT PROB30 2406/2410 1SM +RA


Example: see airport list